sensor_id;sensor_type;location;lat;lon;timestamp;P1;durP1;ratioP1;P2;durP2;ratioP2
3997;SDS011;61314;53.444;9.902;2022-08-20T00:00:37;9.40;;;8.50;;
3997;SDS011;61314;53.444;9.902;2022-08-20T00:03:08;10.97;;;9.67;;
3997;SDS011;61314;53.444;9.902;2022-08-20T00:05:41;10.47;;;9.47;;
3997;SDS011;61314;53.444;9.902;2022-08-20T00:08:11;9.97;;;8.77;;
3997;SDS011;61314;53.444;9.902;2022-08-20T00:10:39;10.53;;;9.60;;
3997;SDS011;61314;53.444;9.902;2022-08-20T00:13:11;9.03;;;8.13;;
3997;SDS011;61314;53.444;9.902;2022-08-20T00:15:43;9.33;;;8.50;;
3997;SDS011;61314;53.444;9.902;2022-08-20T00:18:10;9.60;;;8.70;;
3997;SDS011;61314;53.444;9.902;2022-08-20T00:20:39;10.60;;;7.83;;
3997;SDS011;61314;53.444;9.902;2022-08-20T00:23:08;9.10;;;7.40;;
3997;SDS011;61314;53.444;9.902;2022-08-20T00:25:36;8.27;;;7.57;;
3997;SDS011;61314;53.444;9.902;2022-08-20T00:28:03;8.80;;;7.90;;
3997;SDS011;61314;53.444;9.902;2022-08-20T00:30:32;7.67;;;7.03;;
3997;SDS011;61314;53.444;9.902;2022-08-20T00:33:05;7.27;;;6.57;;
3997;SDS011;61314;53.444;9.902;2022-08-20T00:35:35;6.37;;;5.97;;
3997;SDS011;61314;53.444;9.902;2022-08-20T00:38:03;6.77;;;6.30;;
3997;SDS011;61314;53.444;9.902;2022-08-20T00:40:32;6.50;;;6.10;;
3997;SDS011;61314;53.444;9.902;2022-08-20T00:43:02;7.10;;;6.50;;
3997;SDS011;61314;53.444;9.902;2022-08-20T00:45:31;6.80;;;6.30;;
3997;SDS011;61314;53.444;9.902;2022-08-20T00:47:59;7.10;;;6.60;;
3997;SDS011;61314;53.444;9.902;2022-08-20T00:50:30;5.87;;;5.47;;
3997;SDS011;61314;53.444;9.902;2022-08-20T00:53:02;7.60;;;6.90;;
3997;SDS011;61314;53.444;9.902;2022-08-20T00:55:33;8.97;;;6.40;;
3997;SDS011;61314;53.444;9.902;2022-08-20T00:58:02;6.03;;;5.63;;
3997;SDS011;61314;53.444;9.902;2022-08-20T01:00:36;7.87;;;6.40;;
3997;SDS011;61314;53.444;9.902;2022-08-20T01:03:09;5.77;;;5.30;;
3997;SDS011;61314;53.444;9.902;2022-08-20T01:05:39;6.13;;;5.20;;
3997;SDS011;61314;53.444;9.902;2022-08-20T01:08:10;6.03;;;5.57;;
3997;SDS011;61314;53.444;9.902;2022-08-20T01:10:38;5.10;;;4.70;;
3997;SDS011;61314;53.444;9.902;2022-08-20T01:13:09;5.13;;;4.83;;
3997;SDS011;61314;53.444;9.902;2022-08-20T01:15:39;5.70;;;5.40;;
3997;SDS011;61314;53.444;9.902;2022-08-20T01:18:09;6.57;;;5.90;;
3997;SDS011;61314;53.444;9.902;2022-08-20T01:20:40;5.27;;;4.97;;
3997;SDS011;61314;53.444;9.902;2022-08-20T01:25:59;5.07;;;4.77;;
3997;SDS011;61314;53.444;9.902;2022-08-20T01:28:55;4.97;;;4.67;;
3997;SDS011;61314;53.444;9.902;2022-08-20T01:31:27;5.30;;;4.80;;
3997;SDS011;61314;53.444;9.902;2022-08-20T01:33:57;4.80;;;4.60;;
3997;SDS011;61314;53.444;9.902;2022-08-20T01:36:26;4.60;;;4.40;;
3997;SDS011;61314;53.444;9.902;2022-08-20T01:38:57;5.53;;;5.00;;
3997;SDS011;61314;53.444;9.902;2022-08-20T01:41:29;5.57;;;5.17;;
3997;SDS011;61314;53.444;9.902;2022-08-20T01:44:19;5.77;;;4.73;;
3997;SDS011;61314;53.444;9.902;2022-08-20T01:46:48;5.00;;;4.60;;
3997;SDS011;61314;53.444;9.902;2022-08-20T01:49:23;5.20;;;4.80;;
3997;SDS011;61314;53.444;9.902;2022-08-20T01:51:53;5.33;;;5.03;;
3997;SDS011;61314;53.444;9.902;2022-08-20T01:54:22;5.47;;;5.17;;
3997;SDS011;61314;53.444;9.902;2022-08-20T01:56:55;6.60;;;6.00;;
3997;SDS011;61314;53.444;9.902;2022-08-20T01:59:28;7.37;;;6.87;;
3997;SDS011;61314;53.444;9.902;2022-08-20T02:01:55;8.73;;;7.93;;
3997;SDS011;61314;53.444;9.902;2022-08-20T02:04:23;8.30;;;7.40;;
3997;SDS011;61314;53.444;9.902;2022-08-20T02:06:51;8.20;;;7.50;;
3997;SDS011;61314;53.444;9.902;2022-08-20T02:09:23;6.50;;;6.10;;
3997;SDS011;61314;53.444;9.902;2022-08-20T02:11:55;8.33;;;7.60;;
3997;SDS011;61314;53.444;9.902;2022-08-20T02:14:22;7.13;;;6.63;;
3997;SDS011;61314;53.444;9.902;2022-08-20T02:16:49;12.80;;;8.50;;
3997;SDS011;61314;53.444;9.902;2022-08-20T02:19:31;9.43;;;8.63;;
3997;SDS011;61314;53.444;9.902;2022-08-20T02:22:02;10.27;;;9.37;;
3997;SDS011;61314;53.444;9.902;2022-08-20T02:24:36;9.80;;;9.00;;
3997;SDS011;61314;53.444;9.902;2022-08-20T02:27:03;9.70;;;8.70;;
3997;SDS011;61314;53.444;9.902;2022-08-20T02:29:30;18.43;;;11.30;;
3997;SDS011;61314;53.444;9.902;2022-08-20T02:31:57;12.10;;;10.00;;
3997;SDS011;61314;53.444;9.902;2022-08-20T02:34:44;11.67;;;10.40;;
3997;SDS011;61314;53.444;9.902;2022-08-20T02:37:11;12.03;;;10.90;;
3997;SDS011;61314;53.444;9.902;2022-08-20T02:39:41;12.10;;;10.90;;
3997;SDS011;61314;53.444;9.902;2022-08-20T02:42:08;17.27;;;13.20;;
3997;SDS011;61314;53.444;9.902;2022-08-20T02:44:37;15.53;;;12.83;;
3997;SDS011;61314;53.444;9.902;2022-08-20T02:47:05;16.10;;;12.50;;
3997;SDS011;61314;53.444;9.902;2022-08-20T02:49:32;17.57;;;13.47;;
3997;SDS011;61314;53.444;9.902;2022-08-20T02:51:59;15.20;;;13.03;;
3997;SDS011;61314;53.444;9.902;2022-08-20T02:54:26;13.67;;;12.23;;
3997;SDS011;61314;53.444;9.902;2022-08-20T02:56:54;13.93;;;12.53;;
3997;SDS011;61314;53.444;9.902;2022-08-20T02:59:20;16.37;;;12.30;;
3997;SDS011;61314;53.444;9.902;2022-08-20T03:01:47;14.37;;;12.87;;
3997;SDS011;61314;53.444;9.902;2022-08-20T03:04:26;19.13;;;13.17;;
3997;SDS011;61314;53.444;9.902;2022-08-20T03:06:54;14.87;;;12.57;;
3997;SDS011;61314;53.444;9.902;2022-08-20T03:09:21;16.87;;;14.03;;
3997;SDS011;61314;53.444;9.902;2022-08-20T03:11:48;19.37;;;14.80;;
3997;SDS011;61314;53.444;9.902;2022-08-20T03:14:15;17.17;;;13.57;;
3997;SDS011;61314;53.444;9.902;2022-08-20T03:16:41;19.30;;;14.17;;
3997;SDS011;61314;53.444;9.902;2022-08-20T03:19:08;19.30;;;15.10;;
3997;SDS011;61314;53.444;9.902;2022-08-20T03:21:34;18.13;;;14.37;;
3997;SDS011;61314;53.444;9.902;2022-08-20T03:24:01;27.23;;;14.47;;
3997;SDS011;61314;53.444;9.902;2022-08-20T03:26:28;19.90;;;15.23;;
3997;SDS011;61314;53.444;9.902;2022-08-20T03:28:55;22.57;;;13.80;;
3997;SDS011;61314;53.444;9.902;2022-08-20T03:31:22;25.37;;;15.37;;
3997;SDS011;61314;53.444;9.902;2022-08-20T03:33:48;18.33;;;14.63;;
3997;SDS011;61314;53.444;9.902;2022-08-20T03:36:19;17.93;;;15.70;;
3997;SDS011;61314;53.444;9.902;2022-08-20T03:38:54;22.23;;;17.73;;
3997;SDS011;61314;53.444;9.902;2022-08-20T03:41:21;26.13;;;16.80;;
3997;SDS011;61314;53.444;9.902;2022-08-20T03:43:49;21.97;;;17.50;;
3997;SDS011;61314;53.444;9.902;2022-08-20T03:46:16;22.90;;;16.77;;
3997;SDS011;61314;53.444;9.902;2022-08-20T03:48:48;18.03;;;14.97;;
3997;SDS011;61314;53.444;9.902;2022-08-20T03:51:21;21.50;;;16.80;;
3997;SDS011;61314;53.444;9.902;2022-08-20T03:53:48;21.20;;;17.30;;
3997;SDS011;61314;53.444;9.902;2022-08-20T03:56:15;19.50;;;15.60;;
3997;SDS011;61314;53.444;9.902;2022-08-20T03:58:42;18.80;;;14.77;;
3997;SDS011;61314;53.444;9.902;2022-08-20T04:01:09;18.87;;;14.53;;
3997;SDS011;61314;53.444;9.902;2022-08-20T04:03:55;16.10;;;14.40;;
3997;SDS011;61314;53.444;9.902;2022-08-20T04:06:24;21.13;;;15.10;;
3997;SDS011;61314;53.444;9.902;2022-08-20T04:08:52;21.03;;;14.93;;
3997;SDS011;61314;53.444;9.902;2022-08-20T04:11:19;22.90;;;15.80;;
3997;SDS011;61314;53.444;9.902;2022-08-20T04:13:45;18.47;;;15.80;;
3997;SDS011;61314;53.444;9.902;2022-08-20T04:16:14;20.80;;;15.77;;
3997;SDS011;61314;53.444;9.902;2022-08-20T04:18:41;21.73;;;15.30;;
3997;SDS011;61314;53.444;9.902;2022-08-20T04:21:26;24.30;;;15.30;;
3997;SDS011;61314;53.444;9.902;2022-08-20T04:23:58;21.67;;;15.20;;
3997;SDS011;61314;53.444;9.902;2022-08-20T04:26:25;16.63;;;14.80;;
3997;SDS011;61314;53.444;9.902;2022-08-20T04:28:52;23.13;;;15.10;;
3997;SDS011;61314;53.444;9.902;2022-08-20T04:31:20;18.53;;;15.50;;
3997;SDS011;61314;53.444;9.902;2022-08-20T04:33:50;19.77;;;14.90;;
3997;SDS011;61314;53.444;9.902;2022-08-20T04:36:17;19.53;;;15.43;;
3997;SDS011;61314;53.444;9.902;2022-08-20T04:38:44;22.50;;;15.37;;
3997;SDS011;61314;53.444;9.902;2022-08-20T04:41:16;20.00;;;14.63;;
3997;SDS011;61314;53.444;9.902;2022-08-20T04:43:49;21.30;;;15.27;;
3997;SDS011;61314;53.444;9.902;2022-08-20T04:46:20;21.40;;;15.63;;
3997;SDS011;61314;53.444;9.902;2022-08-20T04:48:50;19.23;;;14.87;;
3997;SDS011;61314;53.444;9.902;2022-08-20T04:51:17;20.40;;;16.37;;
3997;SDS011;61314;53.444;9.902;2022-08-20T04:53:48;19.93;;;15.23;;
3997;SDS011;61314;53.444;9.902;2022-08-20T04:56:18;23.97;;;16.63;;
3997;SDS011;61314;53.444;9.902;2022-08-20T04:58:51;22.50;;;16.17;;
3997;SDS011;61314;53.444;9.902;2022-08-20T05:01:19;21.77;;;15.87;;
3997;SDS011;61314;53.444;9.902;2022-08-20T05:03:48;21.43;;;17.40;;
3997;SDS011;61314;53.444;9.902;2022-08-20T05:06:16;29.60;;;16.53;;
3997;SDS011;61314;53.444;9.902;2022-08-20T05:08:43;21.97;;;15.83;;
3997;SDS011;61314;53.444;9.902;2022-08-20T05:11:10;20.07;;;16.33;;
3997;SDS011;61314;53.444;9.902;2022-08-20T05:13:59;19.10;;;15.50;;
3997;SDS011;61314;53.444;9.902;2022-08-20T05:16:26;26.37;;;16.60;;
3997;SDS011;61314;53.444;9.902;2022-08-20T05:18:52;17.50;;;15.60;;
3997;SDS011;61314;53.444;9.902;2022-08-20T05:21:19;19.93;;;15.40;;
3997;SDS011;61314;53.444;9.902;2022-08-20T05:23:46;20.27;;;16.30;;
3997;SDS011;61314;53.444;9.902;2022-08-20T05:26:14;20.97;;;15.93;;
3997;SDS011;61314;53.444;9.902;2022-08-20T05:28:41;21.47;;;16.40;;
3997;SDS011;61314;53.444;9.902;2022-08-20T05:31:24;21.20;;;16.70;;
3997;SDS011;61314;53.444;9.902;2022-08-20T05:33:58;25.30;;;16.73;;
3997;SDS011;61314;53.444;9.902;2022-08-20T05:36:26;20.53;;;16.20;;
3997;SDS011;61314;53.444;9.902;2022-08-20T05:38:52;19.07;;;16.23;;
3997;SDS011;61314;53.444;9.902;2022-08-20T05:41:19;22.03;;;17.30;;
3997;SDS011;61314;53.444;9.902;2022-08-20T05:43:54;21.90;;;17.27;;
3997;SDS011;61314;53.444;9.902;2022-08-20T05:46:26;25.87;;;16.80;;
3997;SDS011;61314;53.444;9.902;2022-08-20T05:48:54;22.57;;;16.27;;
3997;SDS011;61314;53.444;9.902;2022-08-20T05:51:24;23.07;;;16.60;;
3997;SDS011;61314;53.444;9.902;2022-08-20T05:53:52;22.10;;;17.17;;
3997;SDS011;61314;53.444;9.902;2022-08-20T05:56:18;19.80;;;16.43;;
3997;SDS011;61314;53.444;9.902;2022-08-20T05:58:51;20.57;;;17.40;;
3997;SDS011;61314;53.444;9.902;2022-08-20T06:01:18;25.47;;;17.67;;
3997;SDS011;61314;53.444;9.902;2022-08-20T06:03:45;20.07;;;16.10;;
3997;SDS011;61314;53.444;9.902;2022-08-20T06:06:30;20.73;;;16.07;;
3997;SDS011;61314;53.444;9.902;2022-08-20T06:09:10;19.73;;;15.27;;
3997;SDS011;61314;53.444;9.902;2022-08-20T06:11:37;23.80;;;16.50;;
3997;SDS011;61314;53.444;9.902;2022-08-20T06:14:04;23.60;;;18.70;;
3997;SDS011;61314;53.444;9.902;2022-08-20T06:16:30;23.07;;;16.60;;
3997;SDS011;61314;53.444;9.902;2022-08-20T06:18:57;24.07;;;18.43;;
3997;SDS011;61314;53.444;9.902;2022-08-20T06:21:24;21.10;;;18.13;;
3997;SDS011;61314;53.444;9.902;2022-08-20T06:23:51;21.70;;;17.37;;
3997;SDS011;61314;53.444;9.902;2022-08-20T06:26:24;33.47;;;18.87;;
3997;SDS011;61314;53.444;9.902;2022-08-20T06:28:55;23.43;;;16.67;;
3997;SDS011;61314;53.444;9.902;2022-08-20T06:31:22;27.63;;;19.63;;
3997;SDS011;61314;53.444;9.902;2022-08-20T06:33:49;21.67;;;17.03;;
3997;SDS011;61314;53.444;9.902;2022-08-20T06:36:16;24.27;;;17.47;;
3997;SDS011;61314;53.444;9.902;2022-08-20T06:38:44;19.37;;;16.23;;
3997;SDS011;61314;53.444;9.902;2022-08-20T06:41:11;21.23;;;18.00;;
3997;SDS011;61314;53.444;9.902;2022-08-20T06:43:38;23.30;;;18.50;;
3997;SDS011;61314;53.444;9.902;2022-08-20T06:46:04;20.37;;;17.97;;
3997;SDS011;61314;53.444;9.902;2022-08-20T06:48:32;24.43;;;18.00;;
3997;SDS011;61314;53.444;9.902;2022-08-20T06:50:59;24.00;;;17.80;;
3997;SDS011;61314;53.444;9.902;2022-08-20T06:53:26;22.63;;;18.80;;
3997;SDS011;61314;53.444;9.902;2022-08-20T06:55:54;18.07;;;16.27;;
3997;SDS011;61314;53.444;9.902;2022-08-20T06:58:24;18.07;;;15.90;;
3997;SDS011;61314;53.444;9.902;2022-08-20T07:01:03;23.47;;;18.20;;
3997;SDS011;61314;53.444;9.902;2022-08-20T07:03:35;16.83;;;15.03;;
3997;SDS011;61314;53.444;9.902;2022-08-20T07:06:03;18.40;;;16.50;;
3997;SDS011;61314;53.444;9.902;2022-08-20T07:08:30;21.07;;;16.30;;
3997;SDS011;61314;53.444;9.902;2022-08-20T07:10:57;19.33;;;15.53;;
3997;SDS011;61314;53.444;9.902;2022-08-20T07:13:24;17.80;;;15.87;;
3997;SDS011;61314;53.444;9.902;2022-08-20T07:15:52;21.23;;;15.53;;
3997;SDS011;61314;53.444;9.902;2022-08-20T07:18:19;18.73;;;16.03;;
3997;SDS011;61314;53.444;9.902;2022-08-20T07:20:54;18.10;;;13.33;;
3997;SDS011;61314;53.444;9.902;2022-08-20T07:23:22;15.70;;;13.40;;
3997;SDS011;61314;53.444;9.902;2022-08-20T07:25:49;15.37;;;13.40;;
3997;SDS011;61314;53.444;9.902;2022-08-20T07:28:18;14.63;;;12.17;;
3997;SDS011;61314;53.444;9.902;2022-08-20T07:30:46;16.93;;;11.13;;
3997;SDS011;61314;53.444;9.902;2022-08-20T07:33:41;12.87;;;11.47;;
3997;SDS011;61314;53.444;9.902;2022-08-20T07:36:10;12.70;;;10.93;;
3997;SDS011;61314;53.444;9.902;2022-08-20T07:38:37;13.30;;;11.03;;
3997;SDS011;61314;53.444;9.902;2022-08-20T07:41:06;11.37;;;10.20;;
3997;SDS011;61314;53.444;9.902;2022-08-20T07:43:33;9.77;;;8.67;;
3997;SDS011;61314;53.444;9.902;2022-08-20T07:46:00;8.90;;;8.10;;
3997;SDS011;61314;53.444;9.902;2022-08-20T07:48:35;9.40;;;7.57;;
3997;SDS011;61314;53.444;9.902;2022-08-20T07:51:05;8.77;;;7.00;;
3997;SDS011;61314;53.444;9.902;2022-08-20T07:53:34;8.13;;;7.43;;
3997;SDS011;61314;53.444;9.902;2022-08-20T07:56:12;7.60;;;5.67;;
3997;SDS011;61314;53.444;9.902;2022-08-20T07:58:48;7.47;;;6.17;;
3997;SDS011;61314;53.444;9.902;2022-08-20T08:01:19;8.47;;;5.50;;
3997;SDS011;61314;53.444;9.902;2022-08-20T08:03:47;15.10;;;6.00;;
3997;SDS011;61314;53.444;9.902;2022-08-20T08:06:17;9.63;;;6.77;;
3997;SDS011;61314;53.444;9.902;2022-08-20T08:08:55;8.33;;;5.53;;
3997;SDS011;61314;53.444;9.902;2022-08-20T08:11:22;6.93;;;5.40;;
3997;SDS011;61314;53.444;9.902;2022-08-20T08:13:49;10.77;;;6.17;;
3997;SDS011;61314;53.444;9.902;2022-08-20T08:16:17;5.57;;;4.87;;
3997;SDS011;61314;53.444;9.902;2022-08-20T08:18:46;8.20;;;5.83;;
3997;SDS011;61314;53.444;9.902;2022-08-20T08:21:15;8.80;;;5.77;;
3997;SDS011;61314;53.444;9.902;2022-08-20T08:23:43;6.53;;;4.60;;
3997;SDS011;61314;53.444;9.902;2022-08-20T08:26:11;6.30;;;4.63;;
3997;SDS011;61314;53.444;9.902;2022-08-20T08:28:44;7.43;;;3.87;;
3997;SDS011;61314;53.444;9.902;2022-08-20T08:31:11;4.27;;;3.97;;
3997;SDS011;61314;53.444;9.902;2022-08-20T08:33:39;6.20;;;3.10;;
3997;SDS011;61314;53.444;9.902;2022-08-20T08:36:07;10.00;;;3.43;;
3997;SDS011;61314;53.444;9.902;2022-08-20T08:38:35;8.30;;;3.30;;
3997;SDS011;61314;53.444;9.902;2022-08-20T08:41:46;11.07;;;4.37;;
3997;SDS011;61314;53.444;9.902;2022-08-20T08:43:55;12.13;;;5.50;;
3997;SDS011;61314;53.444;9.902;2022-08-20T08:46:26;5.10;;;3.80;;
3997;SDS011;61314;53.444;9.902;2022-08-20T08:48:54;8.30;;;3.93;;
3997;SDS011;61314;53.444;9.902;2022-08-20T08:51:30;3.73;;;3.00;;
3997;SDS011;61314;53.444;9.902;2022-08-20T08:53:58;7.47;;;3.10;;
3997;SDS011;61314;53.444;9.902;2022-08-20T08:56:31;3.87;;;2.77;;
3997;SDS011;61314;53.444;9.902;2022-08-20T08:59:01;4.83;;;2.57;;
3997;SDS011;61314;53.444;9.902;2022-08-20T09:01:30;2.90;;;2.53;;
3997;SDS011;61314;53.444;9.902;2022-08-20T09:04:18;7.63;;;2.63;;
3997;SDS011;61314;53.444;9.902;2022-08-20T09:06:48;8.33;;;3.60;;
3997;SDS011;61314;53.444;9.902;2022-08-20T09:09:25;4.03;;;2.30;;
3997;SDS011;61314;53.444;9.902;2022-08-20T09:11:53;3.43;;;2.97;;
3997;SDS011;61314;53.444;9.902;2022-08-20T09:14:21;3.20;;;3.00;;
3997;SDS011;61314;53.444;9.902;2022-08-20T09:16:50;7.27;;;3.60;;
3997;SDS011;61314;53.444;9.902;2022-08-20T09:19:19;6.30;;;2.70;;
3997;SDS011;61314;53.444;9.902;2022-08-20T09:21:46;6.43;;;3.10;;
3997;SDS011;61314;53.444;9.902;2022-08-20T09:24:13;5.60;;;3.50;;
3997;SDS011;61314;53.444;9.902;2022-08-20T09:26:40;6.27;;;2.80;;
3997;SDS011;61314;53.444;9.902;2022-08-20T09:29:07;5.73;;;3.03;;
3997;SDS011;61314;53.444;9.902;2022-08-20T09:31:35;7.30;;;3.03;;
3997;SDS011;61314;53.444;9.902;2022-08-20T09:34:03;5.00;;;2.70;;
3997;SDS011;61314;53.444;9.902;2022-08-20T09:36:31;4.77;;;2.80;;
3997;SDS011;61314;53.444;9.902;2022-08-20T09:38:58;5.53;;;2.50;;
3997;SDS011;61314;53.444;9.902;2022-08-20T09:41:28;7.20;;;2.70;;
3997;SDS011;61314;53.444;9.902;2022-08-20T09:43:55;7.90;;;2.77;;
3997;SDS011;61314;53.444;9.902;2022-08-20T09:46:22;3.17;;;2.40;;
3997;SDS011;61314;53.444;9.902;2022-08-20T09:48:52;3.07;;;2.73;;
3997;SDS011;61314;53.444;9.902;2022-08-20T09:51:19;3.23;;;2.57;;
3997;SDS011;61314;53.444;9.902;2022-08-20T09:53:47;5.67;;;2.40;;
3997;SDS011;61314;53.444;9.902;2022-08-20T09:56:14;4.50;;;2.87;;
3997;SDS011;61314;53.444;9.902;2022-08-20T09:58:46;5.83;;;3.17;;
3997;SDS011;61314;53.444;9.902;2022-08-20T10:01:14;9.20;;;2.90;;
3997;SDS011;61314;53.444;9.902;2022-08-20T10:03:42;6.90;;;2.77;;
3997;SDS011;61314;53.444;9.902;2022-08-20T10:06:10;6.87;;;4.20;;
3997;SDS011;61314;53.444;9.902;2022-08-20T10:08:39;2.90;;;2.50;;
3997;SDS011;61314;53.444;9.902;2022-08-20T10:11:06;16.17;;;3.13;;
3997;SDS011;61314;53.444;9.902;2022-08-20T10:13:33;4.30;;;2.97;;
3997;SDS011;61314;53.444;9.902;2022-08-20T10:16:00;3.30;;;2.43;;
3997;SDS011;61314;53.444;9.902;2022-08-20T10:18:27;4.13;;;2.37;;
3997;SDS011;61314;53.444;9.902;2022-08-20T10:20:54;3.40;;;2.43;;
3997;SDS011;61314;53.444;9.902;2022-08-20T10:23:21;3.73;;;2.43;;
3997;SDS011;61314;53.444;9.902;2022-08-20T10:25:48;4.87;;;2.10;;
3997;SDS011;61314;53.444;9.902;2022-08-20T10:28:15;6.90;;;2.57;;
3997;SDS011;61314;53.444;9.902;2022-08-20T10:30:42;3.93;;;2.20;;
3997;SDS011;61314;53.444;9.902;2022-08-20T10:33:10;5.53;;;2.50;;
3997;SDS011;61314;53.444;9.902;2022-08-20T10:35:37;11.63;;;2.67;;
3997;SDS011;61314;53.444;9.902;2022-08-20T10:38:04;5.93;;;2.80;;
3997;SDS011;61314;53.444;9.902;2022-08-20T10:40:31;6.60;;;2.47;;
3997;SDS011;61314;53.444;9.902;2022-08-20T10:42:58;3.40;;;2.73;;
3997;SDS011;61314;53.444;9.902;2022-08-20T10:45:25;11.00;;;2.90;;
3997;SDS011;61314;53.444;9.902;2022-08-20T10:47:52;5.27;;;2.53;;
3997;SDS011;61314;53.444;9.902;2022-08-20T10:50:19;5.53;;;2.63;;
3997;SDS011;61314;53.444;9.902;2022-08-20T10:52:46;5.20;;;2.90;;
3997;SDS011;61314;53.444;9.902;2022-08-20T10:55:14;6.87;;;2.53;;
3997;SDS011;61314;53.444;9.902;2022-08-20T10:57:41;4.67;;;2.67;;
3997;SDS011;61314;53.444;9.902;2022-08-20T11:00:09;4.00;;;2.33;;
3997;SDS011;61314;53.444;9.902;2022-08-20T11:02:36;9.80;;;2.47;;
3997;SDS011;61314;53.444;9.902;2022-08-20T11:05:06;2.37;;;2.13;;
3997;SDS011;61314;53.444;9.902;2022-08-20T11:07:34;3.23;;;2.57;;
3997;SDS011;61314;53.444;9.902;2022-08-20T11:10:22;9.63;;;2.57;;
3997;SDS011;61314;53.444;9.902;2022-08-20T11:12:49;3.87;;;2.20;;
3997;SDS011;61314;53.444;9.902;2022-08-20T11:15:16;4.47;;;2.47;;
3997;SDS011;61314;53.444;9.902;2022-08-20T11:17:43;6.90;;;3.20;;
3997;SDS011;61314;53.444;9.902;2022-08-20T11:20:12;5.00;;;2.23;;
3997;SDS011;61314;53.444;9.902;2022-08-20T11:22:39;7.63;;;2.40;;
3997;SDS011;61314;53.444;9.902;2022-08-20T11:25:06;8.67;;;2.67;;
3997;SDS011;61314;53.444;9.902;2022-08-20T11:27:39;6.73;;;3.10;;
3997;SDS011;61314;53.444;9.902;2022-08-20T11:30:08;5.40;;;2.30;;
3997;SDS011;61314;53.444;9.902;2022-08-20T11:32:36;5.77;;;2.03;;
3997;SDS011;61314;53.444;9.902;2022-08-20T11:35:03;4.07;;;2.57;;
3997;SDS011;61314;53.444;9.902;2022-08-20T11:37:50;4.87;;;1.93;;
3997;SDS011;61314;53.444;9.902;2022-08-20T11:40:18;13.03;;;2.67;;
3997;SDS011;61314;53.444;9.902;2022-08-20T11:42:46;2.73;;;1.77;;
3997;SDS011;61314;53.444;9.902;2022-08-20T11:45:33;6.33;;;2.47;;
3997;SDS011;61314;53.444;9.902;2022-08-20T11:48:03;5.50;;;2.17;;
3997;SDS011;61314;53.444;9.902;2022-08-20T11:50:30;8.70;;;2.23;;
3997;SDS011;61314;53.444;9.902;2022-08-20T11:52:57;4.23;;;1.93;;
3997;SDS011;61314;53.444;9.902;2022-08-20T11:55:26;5.37;;;2.40;;
3997;SDS011;61314;53.444;9.902;2022-08-20T11:57:55;6.57;;;1.90;;
3997;SDS011;61314;53.444;9.902;2022-08-20T12:00:25;3.50;;;1.80;;
3997;SDS011;61314;53.444;9.902;2022-08-20T12:02:58;4.40;;;2.43;;
3997;SDS011;61314;53.444;9.902;2022-08-20T12:05:26;2.33;;;1.47;;
3997;SDS011;61314;53.444;9.902;2022-08-20T12:07:55;3.90;;;1.63;;
3997;SDS011;61314;53.444;9.902;2022-08-20T12:10:22;9.53;;;1.83;;
3997;SDS011;61314;53.444;9.902;2022-08-20T12:12:51;4.83;;;1.77;;
3997;SDS011;61314;53.444;9.902;2022-08-20T12:15:18;5.37;;;2.20;;
3997;SDS011;61314;53.444;9.902;2022-08-20T12:17:45;6.10;;;1.90;;
3997;SDS011;61314;53.444;9.902;2022-08-20T12:20:13;6.23;;;2.23;;
3997;SDS011;61314;53.444;9.902;2022-08-20T12:22:40;5.10;;;1.60;;
3997;SDS011;61314;53.444;9.902;2022-08-20T12:25:08;6.87;;;1.50;;
3997;SDS011;61314;53.444;9.902;2022-08-20T12:27:36;3.03;;;1.60;;
3997;SDS011;61314;53.444;9.902;2022-08-20T12:30:11;6.47;;;2.03;;
3997;SDS011;61314;53.444;9.902;2022-08-20T12:32:38;4.97;;;2.10;;
3997;SDS011;61314;53.444;9.902;2022-08-20T12:35:06;4.50;;;2.00;;
3997;SDS011;61314;53.444;9.902;2022-08-20T12:37:33;3.90;;;1.50;;
3997;SDS011;61314;53.444;9.902;2022-08-20T12:40:02;5.50;;;1.73;;
3997;SDS011;61314;53.444;9.902;2022-08-20T12:42:30;6.00;;;1.60;;
3997;SDS011;61314;53.444;9.902;2022-08-20T12:44:58;10.33;;;2.67;;
3997;SDS011;61314;53.444;9.902;2022-08-20T12:47:26;3.17;;;1.70;;
3997;SDS011;61314;53.444;9.902;2022-08-20T12:49:54;2.50;;;1.57;;
3997;SDS011;61314;53.444;9.902;2022-08-20T12:52:22;12.23;;;1.70;;
3997;SDS011;61314;53.444;9.902;2022-08-20T12:54:50;4.37;;;1.63;;
3997;SDS011;61314;53.444;9.902;2022-08-20T12:57:22;6.23;;;2.27;;
3997;SDS011;61314;53.444;9.902;2022-08-20T12:59:50;6.83;;;2.03;;
3997;SDS011;61314;53.444;9.902;2022-08-20T13:02:17;7.73;;;2.00;;
3997;SDS011;61314;53.444;9.902;2022-08-20T13:04:44;4.47;;;1.70;;
3997;SDS011;61314;53.444;9.902;2022-08-20T13:07:11;3.20;;;1.60;;
3997;SDS011;61314;53.444;9.902;2022-08-20T13:09:39;3.50;;;1.30;;
3997;SDS011;61314;53.444;9.902;2022-08-20T13:12:06;4.60;;;1.90;;
3997;SDS011;61314;53.444;9.902;2022-08-20T13:14:34;6.17;;;1.57;;
3997;SDS011;61314;53.444;9.902;2022-08-20T13:17:01;4.77;;;1.87;;
3997;SDS011;61314;53.444;9.902;2022-08-20T13:19:32;8.10;;;1.90;;
3997;SDS011;61314;53.444;9.902;2022-08-20T13:21:59;6.20;;;1.73;;
3997;SDS011;61314;53.444;9.902;2022-08-20T13:24:26;4.03;;;1.23;;
3997;SDS011;61314;53.444;9.902;2022-08-20T13:26:53;5.63;;;1.77;;
3997;SDS011;61314;53.444;9.902;2022-08-20T13:29:20;5.00;;;1.77;;
3997;SDS011;61314;53.444;9.902;2022-08-20T13:31:47;5.77;;;1.47;;
3997;SDS011;61314;53.444;9.902;2022-08-20T13:34:14;5.30;;;1.60;;
3997;SDS011;61314;53.444;9.902;2022-08-20T13:36:41;3.47;;;1.87;;
3997;SDS011;61314;53.444;9.902;2022-08-20T13:39:08;3.47;;;1.23;;
3997;SDS011;61314;53.444;9.902;2022-08-20T13:41:35;4.87;;;1.80;;
3997;SDS011;61314;53.444;9.902;2022-08-20T13:44:02;3.87;;;1.13;;
3997;SDS011;61314;53.444;9.902;2022-08-20T13:46:29;3.40;;;1.40;;
3997;SDS011;61314;53.444;9.902;2022-08-20T13:48:56;4.70;;;1.20;;
3997;SDS011;61314;53.444;9.902;2022-08-20T13:51:23;5.93;;;1.57;;
3997;SDS011;61314;53.444;9.902;2022-08-20T13:53:55;5.77;;;1.53;;
3997;SDS011;61314;53.444;9.902;2022-08-20T13:56:22;4.47;;;1.90;;
3997;SDS011;61314;53.444;9.902;2022-08-20T13:58:49;7.70;;;1.20;;
3997;SDS011;61314;53.444;9.902;2022-08-20T14:01:18;7.77;;;2.03;;
3997;SDS011;61314;53.444;9.902;2022-08-20T14:03:45;9.03;;;2.13;;
3997;SDS011;61314;53.444;9.902;2022-08-20T14:06:12;5.60;;;1.70;;
3997;SDS011;61314;53.444;9.902;2022-08-20T14:08:39;10.67;;;2.10;;
3997;SDS011;61314;53.444;9.902;2022-08-20T14:11:06;6.47;;;1.50;;
3997;SDS011;61314;53.444;9.902;2022-08-20T14:13:38;4.87;;;1.93;;
3997;SDS011;61314;53.444;9.902;2022-08-20T14:16:07;5.53;;;1.67;;
3997;SDS011;61314;53.444;9.902;2022-08-20T14:18:53;7.53;;;2.27;;
3997;SDS011;61314;53.444;9.902;2022-08-20T14:21:21;3.87;;;1.87;;
3997;SDS011;61314;53.444;9.902;2022-08-20T14:23:48;7.50;;;2.63;;
3997;SDS011;61314;53.444;9.902;2022-08-20T14:26:15;7.30;;;1.43;;
3997;SDS011;61314;53.444;9.902;2022-08-20T14:28:44;7.27;;;2.33;;
3997;SDS011;61314;53.444;9.902;2022-08-20T14:31:11;6.10;;;1.50;;
3997;SDS011;61314;53.444;9.902;2022-08-20T14:33:38;4.60;;;1.90;;
3997;SDS011;61314;53.444;9.902;2022-08-20T14:36:09;3.50;;;1.73;;
3997;SDS011;61314;53.444;9.902;2022-08-20T14:38:36;6.73;;;1.63;;
3997;SDS011;61314;53.444;9.902;2022-08-20T14:41:10;6.13;;;2.03;;
3997;SDS011;61314;53.444;9.902;2022-08-20T14:43:37;5.30;;;1.77;;
3997;SDS011;61314;53.444;9.902;2022-08-20T14:46:04;7.13;;;2.47;;
3997;SDS011;61314;53.444;9.902;2022-08-20T14:48:31;2.47;;;1.73;;
3997;SDS011;61314;53.444;9.902;2022-08-20T14:50:58;5.47;;;2.53;;
3997;SDS011;61314;53.444;9.902;2022-08-20T14:53:26;4.80;;;1.47;;
3997;SDS011;61314;53.444;9.902;2022-08-20T14:55:53;7.33;;;1.77;;
3997;SDS011;61314;53.444;9.902;2022-08-20T14:58:20;5.43;;;2.40;;
3997;SDS011;61314;53.444;9.902;2022-08-20T15:00:49;2.53;;;1.70;;
3997;SDS011;61314;53.444;9.902;2022-08-20T15:03:16;5.63;;;1.80;;
3997;SDS011;61314;53.444;9.902;2022-08-20T15:05:46;8.13;;;1.77;;